sensor_id;sensor_type;location;lat;lon;timestamp;temperature;humidity
36652;DHT22;53334;51.976;20.144;2022-10-23T00:00:32;25.80;58.20
36652;DHT22;53334;51.976;20.144;2022-10-23T00:03:05;25.80;58.80
36652;DHT22;53334;51.976;20.144;2022-10-23T00:05:39;25.80;59.30
36652;DHT22;53334;51.976;20.144;2022-10-23T00:08:13;25.80;58.90
36652;DHT22;53334;51.976;20.144;2022-10-23T00:10:48;25.80;58.80
36652;DHT22;53334;51.976;20.144;2022-10-23T00:13:22;25.80;58.80
36652;DHT22;53334;51.976;20.144;2022-10-23T00:15:55;25.80;58.80
36652;DHT22;53334;51.976;20.144;2022-10-23T00:18:29;25.80;58.80
36652;DHT22;53334;51.976;20.144;2022-10-23T00:21:03;25.80;59.30
36652;DHT22;53334;51.976;20.144;2022-10-23T00:23:37;25.80;59.60
36652;DHT22;53334;51.976;20.144;2022-10-23T00:26:13;25.80;59.50
36652;DHT22;53334;51.976;20.144;2022-10-23T00:28:47;25.80;59.60
36652;DHT22;53334;51.976;20.144;2022-10-23T00:31:22;25.80;59.70
36652;DHT22;53334;51.976;20.144;2022-10-23T00:33:56;25.80;59.80
36652;DHT22;53334;51.976;20.144;2022-10-23T00:36:30;25.80;59.80
36652;DHT22;53334;51.976;20.144;2022-10-23T00:39:04;25.80;59.70
36652;DHT22;53334;51.976;20.144;2022-10-23T00:41:39;25.80;59.90
36652;DHT22;53334;51.976;20.144;2022-10-23T00:47:02;25.80;59.90
36652;DHT22;53334;51.976;20.144;2022-10-23T00:49:36;25.80;59.90
36652;DHT22;53334;51.976;20.144;2022-10-23T00:52:13;25.80;60.00
36652;DHT22;53334;51.976;20.144;2022-10-23T00:54:47;25.80;60.00
36652;DHT22;53334;51.976;20.144;2022-10-23T00:57:22;25.80;60.10
36652;DHT22;53334;51.976;20.144;2022-10-23T00:59:56;25.80;60.20
36652;DHT22;53334;51.976;20.144;2022-10-23T01:02:30;25.80;60.10
36652;DHT22;53334;51.976;20.144;2022-10-23T01:05:04;25.80;60.20
36652;DHT22;53334;51.976;20.144;2022-10-23T01:07:42;25.80;60.30
36652;DHT22;53334;51.976;20.144;2022-10-23T01:10:20;25.80;60.30
36652;DHT22;53334;51.976;20.144;2022-10-23T01:12:59;25.80;60.40
36652;DHT22;53334;51.976;20.144;2022-10-23T01:15:36;25.80;60.40
36652;DHT22;53334;51.976;20.144;2022-10-23T01:18:18;25.80;60.40
36652;DHT22;53334;51.976;20.144;2022-10-23T01:20:56;25.80;60.50
36652;DHT22;53334;51.976;20.144;2022-10-23T01:23:36;25.80;60.50
36652;DHT22;53334;51.976;20.144;2022-10-23T01:26:18;25.80;60.50
36652;DHT22;53334;51.976;20.144;2022-10-23T01:29:01;25.90;60.60
36652;DHT22;53334;51.976;20.144;2022-10-23T01:31:38;25.90;60.70
36652;DHT22;53334;51.976;20.144;2022-10-23T01:34:15;25.80;60.70
36652;DHT22;53334;51.976;20.144;2022-10-23T01:36:50;25.80;60.70
36652;DHT22;53334;51.976;20.144;2022-10-23T01:39:26;25.80;60.70
36652;DHT22;53334;51.976;20.144;2022-10-23T01:42:01;25.80;60.70
36652;DHT22;53334;51.976;20.144;2022-10-23T01:44:38;25.80;60.70
36652;DHT22;53334;51.976;20.144;2022-10-23T01:47:15;25.90;60.80
36652;DHT22;53334;51.976;20.144;2022-10-23T01:50:04;25.90;60.80
36652;DHT22;53334;51.976;20.144;2022-10-23T01:52:39;25.80;60.80
36652;DHT22;53334;51.976;20.144;2022-10-23T01:55:13;25.80;60.80
36652;DHT22;53334;51.976;20.144;2022-10-23T01:57:47;25.80;60.90
36652;DHT22;53334;51.976;20.144;2022-10-23T02:00:23;25.80;60.90
36652;DHT22;53334;51.976;20.144;2022-10-23T02:02:57;25.90;61.00
36652;DHT22;53334;51.976;20.144;2022-10-23T02:05:36;25.80;61.00
36652;DHT22;53334;51.976;20.144;2022-10-23T02:08:11;25.90;61.10
36652;DHT22;53334;51.976;20.144;2022-10-23T02:10:46;25.90;61.10
36652;DHT22;53334;51.976;20.144;2022-10-23T02:13:23;25.90;61.00
36652;DHT22;53334;51.976;20.144;2022-10-23T02:16:02;25.80;61.00
36652;DHT22;53334;51.976;20.144;2022-10-23T02:18:37;25.90;61.10
36652;DHT22;53334;51.976;20.144;2022-10-23T02:21:14;25.90;61.20
36652;DHT22;53334;51.976;20.144;2022-10-23T02:23:50;25.90;61.20
36652;DHT22;53334;51.976;20.144;2022-10-23T02:26:28;25.90;61.20
36652;DHT22;53334;51.976;20.144;2022-10-23T02:29:06;25.80;61.20
36652;DHT22;53334;51.976;20.144;2022-10-23T02:31:43;25.90;61.20
36652;DHT22;53334;51.976;20.144;2022-10-23T02:34:17;25.90;61.20
36652;DHT22;53334;51.976;20.144;2022-10-23T02:36:51;25.90;61.20
36652;DHT22;53334;51.976;20.144;2022-10-23T02:39:26;25.90;61.30
36652;DHT22;53334;51.976;20.144;2022-10-23T02:42:02;25.80;61.30
36652;DHT22;53334;51.976;20.144;2022-10-23T02:44:41;25.90;61.40
36652;DHT22;53334;51.976;20.144;2022-10-23T02:47:20;25.90;61.40
36652;DHT22;53334;51.976;20.144;2022-10-23T02:50:03;25.90;61.40
36652;DHT22;53334;51.976;20.144;2022-10-23T02:52:41;25.90;61.30
36652;DHT22;53334;51.976;20.144;2022-10-23T02:55:19;25.90;61.40
36652;DHT22;53334;51.976;20.144;2022-10-23T02:57:55;25.80;61.30
36652;DHT22;53334;51.976;20.144;2022-10-23T03:00:37;25.90;61.40
36652;DHT22;53334;51.976;20.144;2022-10-23T03:03:14;25.90;61.50
36652;DHT22;53334;51.976;20.144;2022-10-23T03:05:49;25.90;61.40
36652;DHT22;53334;51.976;20.144;2022-10-23T03:08:23;25.90;61.50
36652;DHT22;53334;51.976;20.144;2022-10-23T03:10:57;25.90;61.50
36652;DHT22;53334;51.976;20.144;2022-10-23T03:13:32;25.90;61.50
36652;DHT22;53334;51.976;20.144;2022-10-23T03:16:06;25.90;61.50
36652;DHT22;53334;51.976;20.144;2022-10-23T03:18:41;25.90;61.40
36652;DHT22;53334;51.976;20.144;2022-10-23T03:21:15;25.90;61.50
36652;DHT22;53334;51.976;20.144;2022-10-23T03:23:54;25.90;61.50
36652;DHT22;53334;51.976;20.144;2022-10-23T03:26:37;25.90;61.60
36652;DHT22;53334;51.976;20.144;2022-10-23T03:29:10;25.90;61.60
36652;DHT22;53334;51.976;20.144;2022-10-23T03:31:47;25.90;61.60
36652;DHT22;53334;51.976;20.144;2022-10-23T03:34:22;25.90;61.50
36652;DHT22;53334;51.976;20.144;2022-10-23T03:36:57;25.90;61.50
36652;DHT22;53334;51.976;20.144;2022-10-23T03:39:31;25.90;61.50
36652;DHT22;53334;51.976;20.144;2022-10-23T03:42:05;25.90;61.50
36652;DHT22;53334;51.976;20.144;2022-10-23T03:44:39;25.90;61.60
36652;DHT22;53334;51.976;20.144;2022-10-23T03:47:12;25.90;61.60
36652;DHT22;53334;51.976;20.144;2022-10-23T03:49:47;25.90;61.60
36652;DHT22;53334;51.976;20.144;2022-10-23T03:52:21;25.90;61.60
36652;DHT22;53334;51.976;20.144;2022-10-23T03:54:55;25.90;61.60
36652;DHT22;53334;51.976;20.144;2022-10-23T03:57:29;25.90;61.60
36652;DHT22;53334;51.976;20.144;2022-10-23T04:00:04;25.90;61.60
36652;DHT22;53334;51.976;20.144;2022-10-23T04:02:47;25.90;61.60
36652;DHT22;53334;51.976;20.144;2022-10-23T04:05:22;25.90;61.70
36652;DHT22;53334;51.976;20.144;2022-10-23T04:08:00;25.90;61.70
36652;DHT22;53334;51.976;20.144;2022-10-23T04:10:36;25.90;61.70
36652;DHT22;53334;51.976;20.144;2022-10-23T04:13:10;25.90;61.70
36652;DHT22;53334;51.976;20.144;2022-10-23T04:15:46;25.90;61.80
36652;DHT22;53334;51.976;20.144;2022-10-23T04:18:20;25.90;61.80
36652;DHT22;53334;51.976;20.144;2022-10-23T04:20:55;25.90;61.80
36652;DHT22;53334;51.976;20.144;2022-10-23T04:23:29;25.90;61.80
36652;DHT22;53334;51.976;20.144;2022-10-23T04:26:03;25.90;61.90
36652;DHT22;53334;51.976;20.144;2022-10-23T04:28:36;25.90;62.00
36652;DHT22;53334;51.976;20.144;2022-10-23T04:31:10;25.90;62.00
36652;DHT22;53334;51.976;20.144;2022-10-23T04:33:47;25.90;62.00
36652;DHT22;53334;51.976;20.144;2022-10-23T04:36:34;25.90;61.80
36652;DHT22;53334;51.976;20.144;2022-10-23T04:39:13;25.90;62.00
36652;DHT22;53334;51.976;20.144;2022-10-23T04:41:47;25.90;62.00
36652;DHT22;53334;51.976;20.144;2022-10-23T04:44:20;25.90;62.00
36652;DHT22;53334;51.976;20.144;2022-10-23T04:46:56;25.90;62.00
36652;DHT22;53334;51.976;20.144;2022-10-23T04:49:29;25.90;62.00
36652;DHT22;53334;51.976;20.144;2022-10-23T04:52:28;25.90;61.80
36652;DHT22;53334;51.976;20.144;2022-10-23T04:55:09;25.90;62.00
36652;DHT22;53334;51.976;20.144;2022-10-23T04:57:50;25.90;62.00
36652;DHT22;53334;51.976;20.144;2022-10-23T05:00:27;25.90;62.00
36652;DHT22;53334;51.976;20.144;2022-10-23T05:03:01;25.90;62.00
36652;DHT22;53334;51.976;20.144;2022-10-23T05:05:42;25.90;62.00
36652;DHT22;53334;51.976;20.144;2022-10-23T05:08:34;25.90;62.00
36652;DHT22;53334;51.976;20.144;2022-10-23T05:11:33;25.90;62.00
36652;DHT22;53334;51.976;20.144;2022-10-23T05:14:10;25.90;62.00
36652;DHT22;53334;51.976;20.144;2022-10-23T05:16:45;25.90;62.00
36652;DHT22;53334;51.976;20.144;2022-10-23T05:19:20;25.90;62.10
36652;DHT22;53334;51.976;20.144;2022-10-23T05:21:55;25.90;62.20
36652;DHT22;53334;51.976;20.144;2022-10-23T05:24:34;25.90;62.00
36652;DHT22;53334;51.976;20.144;2022-10-23T05:27:09;25.90;62.00
36652;DHT22;53334;51.976;20.144;2022-10-23T05:29:44;25.90;62.00
36652;DHT22;53334;51.976;20.144;2022-10-23T05:32:18;25.90;62.00
36652;DHT22;53334;51.976;20.144;2022-10-23T05:34:57;25.90;62.10
36652;DHT22;53334;51.976;20.144;2022-10-23T05:37:35;25.90;62.20
36652;DHT22;53334;51.976;20.144;2022-10-23T05:40:14;25.90;62.00
36652;DHT22;53334;51.976;20.144;2022-10-23T05:42:50;25.90;62.10
36652;DHT22;53334;51.976;20.144;2022-10-23T05:45:32;25.90;62.10
36652;DHT22;53334;51.976;20.144;2022-10-23T05:48:24;25.90;62.00
36652;DHT22;53334;51.976;20.144;2022-10-23T05:51:24;25.90;62.10
36652;DHT22;53334;51.976;20.144;2022-10-23T05:54:03;25.90;62.20
36652;DHT22;53334;51.976;20.144;2022-10-23T05:56:46;25.90;62.30
36652;DHT22;53334;51.976;20.144;2022-10-23T05:59:25;25.90;62.30
36652;DHT22;53334;51.976;20.144;2022-10-23T06:02:24;25.90;62.10
36652;DHT22;53334;51.976;20.144;2022-10-23T06:05:05;25.90;62.30
36652;DHT22;53334;51.976;20.144;2022-10-23T06:07:45;25.90;62.40
36652;DHT22;53334;51.976;20.144;2022-10-23T06:10:19;25.90;62.40
36652;DHT22;53334;51.976;20.144;2022-10-23T06:12:56;25.90;62.40
36652;DHT22;53334;51.976;20.144;2022-10-23T06:15:30;25.90;62.40
36652;DHT22;53334;51.976;20.144;2022-10-23T06:18:09;25.90;62.40
36652;DHT22;53334;51.976;20.144;2022-10-23T06:20:54;25.90;62.40
36652;DHT22;53334;51.976;20.144;2022-10-23T06:23:30;25.90;62.40
36652;DHT22;53334;51.976;20.144;2022-10-23T06:26:19;25.90;62.50
36652;DHT22;53334;51.976;20.144;2022-10-23T06:29:05;25.90;62.50
36652;DHT22;53334;51.976;20.144;2022-10-23T06:31:39;25.90;62.50
36652;DHT22;53334;51.976;20.144;2022-10-23T06:34:13;25.90;62.50
36652;DHT22;53334;51.976;20.144;2022-10-23T06:36:47;25.90;62.50
36652;DHT22;53334;51.976;20.144;2022-10-23T06:39:41;25.90;62.50
36652;DHT22;53334;51.976;20.144;2022-10-23T06:42:38;25.90;62.50
36652;DHT22;53334;51.976;20.144;2022-10-23T06:45:31;25.90;62.50
36652;DHT22;53334;51.976;20.144;2022-10-23T06:48:17;25.90;62.40
36652;DHT22;53334;51.976;20.144;2022-10-23T06:51:07;25.90;62.50
36652;DHT22;53334;51.976;20.144;2022-10-23T06:53:45;25.90;62.70
36652;DHT22;53334;51.976;20.144;2022-10-23T06:56:37;25.90;62.80
36652;DHT22;53334;51.976;20.144;2022-10-23T06:59:14;25.90;62.90
36652;DHT22;53334;51.976;20.144;2022-10-23T07:01:49;25.90;63.20
36652;DHT22;53334;51.976;20.144;2022-10-23T07:04:23;25.90;63.00
36652;DHT22;53334;51.976;20.144;2022-10-23T07:06:57;25.90;63.00
36652;DHT22;53334;51.976;20.144;2022-10-23T07:09:39;25.90;63.20
36652;DHT22;53334;51.976;20.144;2022-10-23T07:12:28;26.00;63.30
36652;DHT22;53334;51.976;20.144;2022-10-23T07:15:24;26.00;63.40
36652;DHT22;53334;51.976;20.144;2022-10-23T07:18:02;25.90;63.30
36652;DHT22;53334;51.976;20.144;2022-10-23T07:20:56;26.00;63.40
36652;DHT22;53334;51.976;20.144;2022-10-23T07:23:30;26.00;63.50
36652;DHT22;53334;51.976;20.144;2022-10-23T07:26:05;26.00;63.50
36652;DHT22;53334;51.976;20.144;2022-10-23T07:28:39;26.00;63.30
36652;DHT22;53334;51.976;20.144;2022-10-23T07:31:13;26.00;63.30
36652;DHT22;53334;51.976;20.144;2022-10-23T07:34:15;25.90;63.30
36652;DHT22;53334;51.976;20.144;2022-10-23T07:36:51;26.00;62.70
36652;DHT22;53334;51.976;20.144;2022-10-23T07:39:27;26.00;61.00
36652;DHT22;53334;51.976;20.144;2022-10-23T07:42:01;26.00;60.90
36652;DHT22;53334;51.976;20.144;2022-10-23T07:44:34;26.00;60.80
36652;DHT22;53334;51.976;20.144;2022-10-23T07:47:08;25.90;60.50
36652;DHT22;53334;51.976;20.144;2022-10-23T07:49:47;25.90;60.40
36652;DHT22;53334;51.976;20.144;2022-10-23T07:52:23;25.90;60.50
36652;DHT22;53334;51.976;20.144;2022-10-23T07:55:14;26.00;60.50
36652;DHT22;53334;51.976;20.144;2022-10-23T07:57:52;25.90;60.30
36652;DHT22;53334;51.976;20.144;2022-10-23T08:00:49;25.90;60.10
36652;DHT22;53334;51.976;20.144;2022-10-23T08:03:32;26.00;60.10
36652;DHT22;53334;51.976;20.144;2022-10-23T08:06:08;26.00;60.10
36652;DHT22;53334;51.976;20.144;2022-10-23T08:08:42;26.00;59.90
36652;DHT22;53334;51.976;20.144;2022-10-23T08:11:17;26.00;60.10
36652;DHT22;53334;51.976;20.144;2022-10-23T08:13:56;26.00;60.20
36652;DHT22;53334;51.976;20.144;2022-10-23T08:16:32;26.00;60.20
36652;DHT22;53334;51.976;20.144;2022-10-23T08:19:09;26.00;60.20
36652;DHT22;53334;51.976;20.144;2022-10-23T08:21:46;26.00;60.20
36652;DHT22;53334;51.976;20.144;2022-10-23T08:24:20;26.10;60.00
36652;DHT22;53334;51.976;20.144;2022-10-23T08:26:54;26.00;59.70
36652;DHT22;53334;51.976;20.144;2022-10-23T08:29:30;26.00;59.50
36652;DHT22;53334;51.976;20.144;2022-10-23T08:32:04;26.00;59.20
36652;DHT22;53334;51.976;20.144;2022-10-23T08:35:01;26.10;59.10
36652;DHT22;53334;51.976;20.144;2022-10-23T08:37:38;26.10;58.80
36652;DHT22;53334;51.976;20.144;2022-10-23T08:40:13;26.00;57.80
36652;DHT22;53334;51.976;20.144;2022-10-23T08:43:16;26.10;58.20
36652;DHT22;53334;51.976;20.144;2022-10-23T08:46:08;26.00;57.90
36652;DHT22;53334;51.976;20.144;2022-10-23T08:49:12;26.10;57.60
36652;DHT22;53334;51.976;20.144;2022-10-23T08:51:59;26.10;57.30
36652;DHT22;53334;51.976;20.144;2022-10-23T08:54:37;26.10;56.90
36652;DHT22;53334;51.976;20.144;2022-10-23T08:57:13;26.10;56.50
36652;DHT22;53334;51.976;20.144;2022-10-23T08:59:47;26.10;56.60
36652;DHT22;53334;51.976;20.144;2022-10-23T09:02:23;26.10;56.20
36652;DHT22;53334;51.976;20.144;2022-10-23T09:04:58;26.10;55.80
36652;DHT22;53334;51.976;20.144;2022-10-23T09:07:35;26.10;55.60
36652;DHT22;53334;51.976;20.144;2022-10-23T09:10:15;26.10;55.80
36652;DHT22;53334;51.976;20.144;2022-10-23T09:12:52;26.00;55.60
36652;DHT22;53334;51.976;20.144;2022-10-23T09:15:29;26.00;53.60
36652;DHT22;53334;51.976;20.144;2022-10-23T09:18:06;26.00;53.20
36652;DHT22;53334;51.976;20.144;2022-10-23T09:20:44;26.00;53.10
36652;DHT22;53334;51.976;20.144;2022-10-23T09:23:22;26.00;54.20
36652;DHT22;53334;51.976;20.144;2022-10-23T09:25:59;25.90;54.10
36652;DHT22;53334;51.976;20.144;2022-10-23T09:28:34;25.90;54.40
36652;DHT22;53334;51.976;20.144;2022-10-23T09:31:09;25.90;54.70
36652;DHT22;53334;51.976;20.144;2022-10-23T09:33:52;25.90;54.40
36652;DHT22;53334;51.976;20.144;2022-10-23T09:36:26;25.90;54.20
36652;DHT22;53334;51.976;20.144;2022-10-23T09:39:00;25.90;54.50
36652;DHT22;53334;51.976;20.144;2022-10-23T09:41:36;25.90;54.70
36652;DHT22;53334;51.976;20.144;2022-10-23T09:44:14;25.90;54.80
36652;DHT22;53334;51.976;20.144;2022-10-23T09:46:50;25.90;54.80
36652;DHT22;53334;51.976;20.144;2022-10-23T09:49:25;25.90;55.20
36652;DHT22;53334;51.976;20.144;2022-10-23T09:52:00;25.90;55.30
36652;DHT22;53334;51.976;20.144;2022-10-23T09:54:36;25.90;55.90
36652;DHT22;53334;51.976;20.144;2022-10-23T09:57:14;25.90;56.30
36652;DHT22;53334;51.976;20.144;2022-10-23T09:59:52;25.90;56.60
36652;DHT22;53334;51.976;20.144;2022-10-23T10:02:27;25.90;56.80
36652;DHT22;53334;51.976;20.144;2022-10-23T10:05:17;26.00;57.00
36652;DHT22;53334;51.976;20.144;2022-10-23T10:07:54;26.00;57.00
36652;DHT22;53334;51.976;20.144;2022-10-23T10:10:30;26.00;57.10
36652;DHT22;53334;51.976;20.144;2022-10-23T10:13:09;26.00;57.10
36652;DHT22;53334;51.976;20.144;2022-10-23T10:15:47;26.00;57.00
36652;DHT22;53334;51.976;20.144;2022-10-23T10:18:24;26.00;57.10
36652;DHT22;53334;51.976;20.144;2022-10-23T10:21:02;26.00;57.30
36652;DHT22;53334;51.976;20.144;2022-10-23T10:23:40;26.00;57.40
36652;DHT22;53334;51.976;20.144;2022-10-23T10:26:20;26.00;57.30
36652;DHT22;53334;51.976;20.144;2022-10-23T10:29:01;26.00;57.40
36652;DHT22;53334;51.976;20.144;2022-10-23T10:31:39;26.00;57.60
36652;DHT22;53334;51.976;20.144;2022-10-23T10:34:16;26.00;57.50
36652;DHT22;53334;51.976;20.144;2022-10-23T10:36:55;26.00;57.60
36652;DHT22;53334;51.976;20.144;2022-10-23T10:39:33;26.00;57.50
36652;DHT22;53334;51.976;20.144;2022-10-23T10:42:19;26.00;57.40
36652;DHT22;53334;51.976;20.144;2022-10-23T10:45:11;26.00;57.40
36652;DHT22;53334;51.976;20.144;2022-10-23T10:47:51;26.00;57.40
36652;DHT22;53334;51.976;20.144;2022-10-23T10:50:30;26.00;57.40
36652;DHT22;53334;51.976;20.144;2022-10-23T10:53:23;26.00;57.40
36652;DHT22;53334;51.976;20.144;2022-10-23T10:56:01;26.00;57.10
36652;DHT22;53334;51.976;20.144;2022-10-23T10:58:37;26.00;57.00
36652;DHT22;53334;51.976;20.144;2022-10-23T11:01:14;26.00;57.00
36652;DHT22;53334;51.976;20.144;2022-10-23T11:03:51;25.90;54.90
36652;DHT22;53334;51.976;20.144;2022-10-23T11:06:27;26.00;53.30
36652;DHT22;53334;51.976;20.144;2022-10-23T11:09:04;25.90;54.80
36652;DHT22;53334;51.976;20.144;2022-10-23T11:11:51;25.90;54.90
36652;DHT22;53334;51.976;20.144;2022-10-23T11:14:26;25.90;54.80
36652;DHT22;53334;51.976;20.144;2022-10-23T11:17:02;25.90;54.70
36652;DHT22;53334;51.976;20.144;2022-10-23T11:19:39;25.80;54.70
36652;DHT22;53334;51.976;20.144;2022-10-23T11:22:15;25.90;54.60
36652;DHT22;53334;51.976;20.144;2022-10-23T11:24:59;25.90;54.70
36652;DHT22;53334;51.976;20.144;2022-10-23T11:27:46;25.90;54.50
36652;DHT22;53334;51.976;20.144;2022-10-23T11:30:23;25.90;54.40
36652;DHT22;53334;51.976;20.144;2022-10-23T11:33:07;25.80;54.30
36652;DHT22;53334;51.976;20.144;2022-10-23T11:35:47;25.80;54.30
36652;DHT22;53334;51.976;20.144;2022-10-23T11:38:23;25.80;54.30
36652;DHT22;53334;51.976;20.144;2022-10-23T11:40:58;25.80;54.40
36652;DHT22;53334;51.976;20.144;2022-10-23T11:43:33;25.80;54.30
36652;DHT22;53334;51.976;20.144;2022-10-23T11:46:12;25.80;54.30
36652;DHT22;53334;51.976;20.144;2022-10-23T11:48:48;25.80;54.20
36652;DHT22;53334;51.976;20.144;2022-10-23T11:51:25;25.80;54.30
36652;DHT22;53334;51.976;20.144;2022-10-23T11:54:06;25.80;54.30
36652;DHT22;53334;51.976;20.144;2022-10-23T11:56:49;25.80;54.20
36652;DHT22;53334;51.976;20.144;2022-10-23T11:59:25;25.80;54.00
36652;DHT22;53334;51.976;20.144;2022-10-23T12:02:00;25.80;54.00
36652;DHT22;53334;51.976;20.144;2022-10-23T12:04:37;25.80;54.00
36652;DHT22;53334;51.976;20.144;2022-10-23T12:07:15;25.80;54.00
36652;DHT22;53334;51.976;20.144;2022-10-23T12:09:53;25.80;53.90
36652;DHT22;53334;51.976;20.144;2022-10-23T12:12:31;25.80;53.80
36652;DHT22;53334;51.976;20.144;2022-10-23T12:15:20;25.80;53.70
36652;DHT22;53334;51.976;20.144;2022-10-23T12:17:54;25.80;53.60
36652;DHT22;53334;51.976;20.144;2022-10-23T12:20:39;25.70;53.60
36652;DHT22;53334;51.976;20.144;2022-10-23T12:23:24;25.70;53.40
36652;DHT22;53334;51.976;20.144;2022-10-23T12:26:05;25.80;54.20
36652;DHT22;53334;51.976;20.144;2022-10-23T12:28:42;25.70;53.40
36652;DHT22;53334;51.976;20.144;2022-10-23T12:31:22;25.70;53.20
36652;DHT22;53334;51.976;20.144;2022-10-23T12:34:00;25.70;53.30
36652;DHT22;53334;51.976;20.144;2022-10-23T12:36:44;25.70;53.20
36652;DHT22;53334;51.976;20.144;2022-10-23T12:39:26;25.70;53.10
36652;DHT22;53334;51.976;20.144;2022-10-23T12:42:02;25.70;52.90
36652;DHT22;53334;51.976;20.144;2022-10-23T12:44:36;25.70;53.50
36652;DHT22;53334;51.976;20.144;2022-10-23T12:47:11;25.70;52.90
36652;DHT22;53334;51.976;20.144;2022-10-23T12:49:47;25.70;52.80
36652;DHT22;53334;51.976;20.144;2022-10-23T12:52:23;25.70;52.70
36652;DHT22;53334;51.976;20.144;2022-10-23T12:54:57;25.70;52.70
36652;DHT22;53334;51.976;20.144;2022-10-23T12:57:39;25.70;52.80
36652;DHT22;53334;51.976;20.144;2022-10-23T13:00:15;25.70;52.60
36652;DHT22;53334;51.976;20.144;2022-10-23T13:02:56;25.70;52.60
36652;DHT22;53334;51.976;20.144;2022-10-23T13:05:30;25.70;52.60
36652;DHT22;53334;51.976;20.144;2022-10-23T13:08:07;25.70;52.40
36652;DHT22;53334;51.976;20.144;2022-10-23T13:10:51;25.70;52.40
36652;DHT22;53334;51.976;20.144;2022-10-23T13:13:25;25.60;52.40
36652;DHT22;53334;51.976;20.144;2022-10-23T13:15:58;25.60;52.40
36652;DHT22;53334;51.976;20.144;2022-10-23T13:18:38;25.60;52.30
36652;DHT22;53334;51.976;20.144;2022-10-23T13:21:16;25.60;52.20
36652;DHT22;53334;51.976;20.144;2022-10-23T13:23:52;25.60;52.30
36652;DHT22;53334;51.976;20.144;2022-10-23T13:26:30;25.60;52.20
36652;DHT22;53334;51.976;20.144;2022-10-23T13:29:04;25.60;52.20
36652;DHT22;53334;51.976;20.144;2022-10-23T13:31:48;25.60;52.10
36652;DHT22;53334;51.976;20.144;2022-10-23T13:34:25;25.60;52.00
36652;DHT22;53334;51.976;20.144;2022-10-23T13:37:01;25.60;52.10
36652;DHT22;53334;51.976;20.144;2022-10-23T13:39:36;25.60;52.10
36652;DHT22;53334;51.976;20.144;2022-10-23T13:42:11;25.60;52.10
36652;DHT22;53334;51.976;20.144;2022-10-23T13:44:45;25.60;52.10
36652;DHT22;53334;51.976;20.144;2022-10-23T13:47:19;25.60;51.90
36652;DHT22;53334;51.976;20.144;2022-10-23T13:49:53;25.60;51.90
36652;DHT22;53334;51.976;20.144;2022-10-23T13:52:26;25.60;51.90
36652;DHT22;53334;51.976;20.144;2022-10-23T13:55:02;25.60;51.90
36652;DHT22;53334;51.976;20.144;2022-10-23T13:57:36;25.60;51.80
36652;DHT22;53334;51.976;20.144;2022-10-23T14:00:10;25.60;52.00
36652;DHT22;53334;51.976;20.144;2022-10-23T14:02:44;25.60;51.90
36652;DHT22;53334;51.976;20.144;2022-10-23T14:05:18;25.60;52.20
36652;DHT22;53334;51.976;20.144;2022-10-23T14:07:51;25.60;52.20
36652;DHT22;53334;51.976;20.144;2022-10-23T14:10:26;25.60;52.30
36652;DHT22;53334;51.976;20.144;2022-10-23T14:13:00;25.60;52.90
36652;DHT22;53334;51.976;20.144;2022-10-23T14:15:34;25.60;52.80
36652;DHT22;53334;51.976;20.144;2022-10-23T14:18:07;25.60;52.70
36652;DHT22;53334;51.976;20.144;2022-10-23T14:20:41;25.70;52.90
36652;DHT22;53334;51.976;20.144;2022-10-23T14:23:15;25.60;52.80
36652;DHT22;53334;51.976;20.144;2022-10-23T14:25:50;25.60;52.80
36652;DHT22;53334;51.976;20.144;2022-10-23T14:28:24;25.60;52.80
36652;DHT22;53334;51.976;20.144;2022-10-23T14:31:02;25.60;52.70
36652;DHT22;53334;51.976;20.144;2022-10-23T14:33:36;25.60;52.70
36652;DHT22;53334;51.976;20.144;2022-10-23T14:36:10;25.60;52.80
36652;DHT22;53334;51.976;20.144;2022-10-23T14:38:44;25.60;52.80
36652;DHT22;53334;51.976;20.144;2022-10-23T14:41:19;25.60;52.80
36652;DHT22;53334;51.976;20.144;2022-10-23T14:43:55;25.60;52.70
36652;DHT22;53334;51.976;20.144;2022-10-23T14:46:29;25.60;52.70
36652;DHT22;53334;51.976;20.144;2022-10-23T14:49:03;25.60;52.90
36652;DHT22;53334;51.976;20.144;2022-10-23T14:51:37;25.60;53.30
36652;DHT22;53334;51.976;20.144;2022-10-23T14:54:10;25.60;53.70
36652;DHT22;53334;51.976;20.144;2022-10-23T14:56:46;25.70;53.80
36652;DHT22;53334;51.976;20.144;2022-10-23T14:59:20;25.70;53.90
36652;DHT22;53334;51.976;20.144;2022-10-23T15:01:54;25.70;53.80
36652;DHT22;53334;51.976;20.144;2022-10-23T15:04:27;25.70;54.00
36652;DHT22;53334;51.976;20.144;2022-10-23T15:07:01;25.70;54.10
36652;DHT22;53334;51.976;20.144;2022-10-23T15:09:35;25.70;54.40
36652;DHT22;53334;51.976;20.144;2022-10-23T15:12:12;25.70;54.90
36652;DHT22;53334;51.976;20.144;2022-10-23T15:14:46;25.70;54.80
36652;DHT22;53334;51.976;20.144;2022-10-23T15:17:19;25.70;54.80
36652;DHT22;53334;51.976;20.144;2022-10-23T15:19:53;25.70;54.80
36652;DHT22;53334;51.976;20.144;2022-10-23T15:22:27;25.70;54.90
36652;DHT22;53334;51.976;20.144;2022-10-23T15:25:00;25.70;55.10
36652;DHT22;53334;51.976;20.144;2022-10-23T15:27:35;25.80;55.40
36652;DHT22;53334;51.976;20.144;2022-10-23T15:30:10;25.80;55.70
36652;DHT22;53334;51.976;20.144;2022-10-23T15:32:44;25.80;55.70
36652;DHT22;53334;51.976;20.144;2022-10-23T15:35:17;25.80;55.80
36652;DHT22;53334;51.976;20.144;2022-10-23T15:37:52;25.80;55.20
36652;DHT22;53334;51.976;20.144;2022-10-23T15:40:25;25.80;55.20
36652;DHT22;53334;51.976;20.144;2022-10-23T15:43:01;25.80;55.20
36652;DHT22;53334;51.976;20.144;2022-10-23T15:45:34;25.80;55.20
36652;DHT22;53334;51.976;20.144;2022-10-23T15:48:08;25.70;55.20
36652;DHT22;53334;51.976;20.144;2022-10-23T15:50:42;25.80;55.30
36652;DHT22;53334;51.976;20.144;2022-10-23T15:53:16;25.80;55.30
36652;DHT22;53334;51.976;20.144;2022-10-23T15:55:49;25.80;55.40
36652;DHT22;53334;51.976;20.144;2022-10-23T15:58:24;25.80;55.50
36652;DHT22;53334;51.976;20.144;2022-10-23T16:01:00;25.80;55.60
36652;DHT22;53334;51.976;20.144;2022-10-23T16:03:37;25.80;55.80
36652;DHT22;53334;51.976;20.144;2022-10-23T16:06:12;25.80;55.80
36652;DHT22;53334;51.976;20.144;2022-10-23T16:08:46;25.80;55.80
36652;DHT22;53334;51.976;20.144;2022-10-23T16:11:20;25.90;55.90
36652;DHT22;53334;51.976;20.144;2022-10-23T16:13:55;25.90;55.90
36652;DHT22;53334;51.976;20.144;2022-10-23T16:16:30;25.90;55.80
36652;DHT22;53334;51.976;20.144;2022-10-23T16:19:04;25.90;55.80
36652;DHT22;53334;51.976;20.144;2022-10-23T16:21:38;25.90;55.80